sensor_id;sensor_type;location;lat;lon;timestamp;temperature;humidity
16485;DHT22;8353;47.856;12.344;2022-12-18T00:01:46;0.50;99.90
16485;DHT22;8353;47.856;12.344;2022-12-18T00:04:21;0.60;99.90
16485;DHT22;8353;47.856;12.344;2022-12-18T00:06:52;0.70;99.90
16485;DHT22;8353;47.856;12.344;2022-12-18T00:09:24;0.70;99.90
16485;DHT22;8353;47.856;12.344;2022-12-18T00:11:55;0.90;99.90
16485;DHT22;8353;47.856;12.344;2022-12-18T00:14:26;1.10;99.90
16485;DHT22;8353;47.856;12.344;2022-12-18T00:16:56;1.30;99.90
16485;DHT22;8353;47.856;12.344;2022-12-18T00:19:29;1.10;99.90
16485;DHT22;8353;47.856;12.344;2022-12-18T00:22:00;1.00;99.90
16485;DHT22;8353;47.856;12.344;2022-12-18T00:24:32;0.60;99.90
16485;DHT22;8353;47.856;12.344;2022-12-18T00:27:02;0.80;99.90
16485;DHT22;8353;47.856;12.344;2022-12-18T00:29:33;0.80;99.90
16485;DHT22;8353;47.856;12.344;2022-12-18T00:32:03;1.00;99.90
16485;DHT22;8353;47.856;12.344;2022-12-18T00:34:33;0.90;99.90
16485;DHT22;8353;47.856;12.344;2022-12-18T00:37:04;0.30;99.90
16485;DHT22;8353;47.856;12.344;2022-12-18T00:39:36;-0.50;99.90
16485;DHT22;8353;47.856;12.344;2022-12-18T00:42:08;-0.30;99.90
16485;DHT22;8353;47.856;12.344;2022-12-18T00:44:57;-0.90;99.90
16485;DHT22;8353;47.856;12.344;2022-12-18T00:47:28;-1.50;99.90
16485;DHT22;8353;47.856;12.344;2022-12-18T00:49:58;-1.20;99.90
16485;DHT22;8353;47.856;12.344;2022-12-18T00:52:28;-0.70;99.90
16485;DHT22;8353;47.856;12.344;2022-12-18T00:55:00;-0.20;99.90
16485;DHT22;8353;47.856;12.344;2022-12-18T00:57:31;-0.50;99.90
16485;DHT22;8353;47.856;12.344;2022-12-18T01:00:02;-0.30;99.90
16485;DHT22;8353;47.856;12.344;2022-12-18T01:02:33;0.00;99.90
16485;DHT22;8353;47.856;12.344;2022-12-18T01:05:03;-0.20;99.90
16485;DHT22;8353;47.856;12.344;2022-12-18T01:07:34;0.00;99.90
16485;DHT22;8353;47.856;12.344;2022-12-18T01:10:08;0.30;99.90
16485;DHT22;8353;47.856;12.344;2022-12-18T01:12:39;0.50;99.90
16485;DHT22;8353;47.856;12.344;2022-12-18T01:15:10;0.00;99.90
16485;DHT22;8353;47.856;12.344;2022-12-18T01:17:43;0.10;99.90
16485;DHT22;8353;47.856;12.344;2022-12-18T01:20:13;0.30;99.90
16485;DHT22;8353;47.856;12.344;2022-12-18T01:22:44;0.40;99.90
16485;DHT22;8353;47.856;12.344;2022-12-18T01:25:15;0.40;99.90
16485;DHT22;8353;47.856;12.344;2022-12-18T01:27:46;0.60;99.90
16485;DHT22;8353;47.856;12.344;2022-12-18T01:30:17;0.80;99.90
16485;DHT22;8353;47.856;12.344;2022-12-18T01:32:48;0.70;99.90
16485;DHT22;8353;47.856;12.344;2022-12-18T01:35:18;0.80;99.90
16485;DHT22;8353;47.856;12.344;2022-12-18T01:37:48;0.90;99.90
16485;DHT22;8353;47.856;12.344;2022-12-18T01:40:19;0.30;99.90
16485;DHT22;8353;47.856;12.344;2022-12-18T01:42:51;0.40;99.90
16485;DHT22;8353;47.856;12.344;2022-12-18T01:45:24;0.20;99.90
16485;DHT22;8353;47.856;12.344;2022-12-18T01:47:56;0.40;99.90
16485;DHT22;8353;47.856;12.344;2022-12-18T01:50:31;0.50;99.90
16485;DHT22;8353;47.856;12.344;2022-12-18T01:53:06;0.70;99.90
16485;DHT22;8353;47.856;12.344;2022-12-18T01:55:41;0.90;99.90
16485;DHT22;8353;47.856;12.344;2022-12-18T01:58:13;0.70;99.90
16485;DHT22;8353;47.856;12.344;2022-12-18T02:00:43;0.90;99.90
16485;DHT22;8353;47.856;12.344;2022-12-18T02:03:14;1.10;99.90
16485;DHT22;8353;47.856;12.344;2022-12-18T02:05:48;0.90;99.90
16485;DHT22;8353;47.856;12.344;2022-12-18T02:08:21;0.90;99.90
16485;DHT22;8353;47.856;12.344;2022-12-18T02:11:03;1.10;99.90
16485;DHT22;8353;47.856;12.344;2022-12-18T02:13:55;1.10;99.90
16485;DHT22;8353;47.856;12.344;2022-12-18T02:16:38;1.00;99.90
16485;DHT22;8353;47.856;12.344;2022-12-18T02:19:32;1.10;99.90
16485;DHT22;8353;47.856;12.344;2022-12-18T02:22:13;1.10;99.90
16485;DHT22;8353;47.856;12.344;2022-12-18T02:24:58;1.10;99.90
16485;DHT22;8353;47.856;12.344;2022-12-18T02:27:33;1.20;99.90
16485;DHT22;8353;47.856;12.344;2022-12-18T02:30:05;0.50;99.90
16485;DHT22;8353;47.856;12.344;2022-12-18T02:32:39;-0.10;99.90
16485;DHT22;8353;47.856;12.344;2022-12-18T02:35:12;0.10;99.90
16485;DHT22;8353;47.856;12.344;2022-12-18T02:37:45;0.30;99.90
16485;DHT22;8353;47.856;12.344;2022-12-18T02:40:17;0.50;99.90
16485;DHT22;8353;47.856;12.344;2022-12-18T02:42:50;0.70;99.90
16485;DHT22;8353;47.856;12.344;2022-12-18T02:45:21;0.90;99.90
16485;DHT22;8353;47.856;12.344;2022-12-18T02:47:54;1.00;99.90
16485;DHT22;8353;47.856;12.344;2022-12-18T02:50:32;1.00;99.90
16485;DHT22;8353;47.856;12.344;2022-12-18T02:53:13;1.10;99.90
16485;DHT22;8353;47.856;12.344;2022-12-18T02:55:55;1.10;99.90
16485;DHT22;8353;47.856;12.344;2022-12-18T02:58:32;0.40;99.90
16485;DHT22;8353;47.856;12.344;2022-12-18T03:01:09;0.50;99.90
16485;DHT22;8353;47.856;12.344;2022-12-18T03:03:45;0.80;99.90
16485;DHT22;8353;47.856;12.344;2022-12-18T03:06:20;0.90;99.90
16485;DHT22;8353;47.856;12.344;2022-12-18T03:09:08;1.00;99.90
16485;DHT22;8353;47.856;12.344;2022-12-18T03:11:42;1.10;99.90
16485;DHT22;8353;47.856;12.344;2022-12-18T03:14:34;1.10;99.90
16485;DHT22;8353;47.856;12.344;2022-12-18T03:17:09;1.10;99.90
16485;DHT22;8353;47.856;12.344;2022-12-18T03:19:42;1.10;99.90
16485;DHT22;8353;47.856;12.344;2022-12-18T03:22:15;1.20;99.90
16485;DHT22;8353;47.856;12.344;2022-12-18T03:24:46;1.00;99.90
16485;DHT22;8353;47.856;12.344;2022-12-18T03:27:20;0.70;99.90
16485;DHT22;8353;47.856;12.344;2022-12-18T03:29:58;0.60;99.90
16485;DHT22;8353;47.856;12.344;2022-12-18T03:32:39;0.50;99.90
16485;DHT22;8353;47.856;12.344;2022-12-18T03:35:12;0.70;99.90
16485;DHT22;8353;47.856;12.344;2022-12-18T03:37:44;0.80;99.90
16485;DHT22;8353;47.856;12.344;2022-12-18T03:40:15;0.90;99.90
16485;DHT22;8353;47.856;12.344;2022-12-18T03:42:48;1.00;99.90
16485;DHT22;8353;47.856;12.344;2022-12-18T03:45:25;1.00;99.90
16485;DHT22;8353;47.856;12.344;2022-12-18T03:48:00;0.80;99.90
16485;DHT22;8353;47.856;12.344;2022-12-18T03:50:38;0.80;99.90
16485;DHT22;8353;47.856;12.344;2022-12-18T03:53:18;0.80;99.90
16485;DHT22;8353;47.856;12.344;2022-12-18T03:55:54;0.90;99.90
16485;DHT22;8353;47.856;12.344;2022-12-18T03:58:26;0.70;99.90
16485;DHT22;8353;47.856;12.344;2022-12-18T04:01:03;0.80;99.90
16485;DHT22;8353;47.856;12.344;2022-12-18T04:03:35;0.40;99.90
16485;DHT22;8353;47.856;12.344;2022-12-18T04:06:06;0.60;99.90
16485;DHT22;8353;47.856;12.344;2022-12-18T04:08:37;0.50;99.90
16485;DHT22;8353;47.856;12.344;2022-12-18T04:11:09;0.70;99.90
16485;DHT22;8353;47.856;12.344;2022-12-18T04:13:42;0.80;99.90
16485;DHT22;8353;47.856;12.344;2022-12-18T04:16:14;0.60;99.90
16485;DHT22;8353;47.856;12.344;2022-12-18T04:18:44;0.60;99.90
16485;DHT22;8353;47.856;12.344;2022-12-18T04:21:15;0.70;99.90
16485;DHT22;8353;47.856;12.344;2022-12-18T04:23:46;0.70;99.90
16485;DHT22;8353;47.856;12.344;2022-12-18T04:26:16;0.70;99.90
16485;DHT22;8353;47.856;12.344;2022-12-18T04:28:47;0.80;99.90
16485;DHT22;8353;47.856;12.344;2022-12-18T04:31:19;0.80;99.90
16485;DHT22;8353;47.856;12.344;2022-12-18T04:33:49;0.80;99.90
16485;DHT22;8353;47.856;12.344;2022-12-18T04:36:19;0.90;99.90
16485;DHT22;8353;47.856;12.344;2022-12-18T04:38:50;0.90;99.90
16485;DHT22;8353;47.856;12.344;2022-12-18T04:41:21;0.90;99.90
16485;DHT22;8353;47.856;12.344;2022-12-18T04:43:52;0.90;99.90
16485;DHT22;8353;47.856;12.344;2022-12-18T04:46:23;0.90;99.90
16485;DHT22;8353;47.856;12.344;2022-12-18T04:48:54;0.90;99.90
16485;DHT22;8353;47.856;12.344;2022-12-18T04:51:24;0.90;99.90
16485;DHT22;8353;47.856;12.344;2022-12-18T04:53:55;0.90;99.90
16485;DHT22;8353;47.856;12.344;2022-12-18T04:56:26;1.10;99.90
16485;DHT22;8353;47.856;12.344;2022-12-18T04:58:57;1.10;99.90
16485;DHT22;8353;47.856;12.344;2022-12-18T05:01:29;1.10;99.90
16485;DHT22;8353;47.856;12.344;2022-12-18T05:04:00;1.20;99.90
16485;DHT22;8353;47.856;12.344;2022-12-18T05:06:30;1.30;99.90
16485;DHT22;8353;47.856;12.344;2022-12-18T05:09:01;1.40;99.90
16485;DHT22;8353;47.856;12.344;2022-12-18T05:11:31;1.40;99.90
16485;DHT22;8353;47.856;12.344;2022-12-18T05:14:02;1.00;99.90
16485;DHT22;8353;47.856;12.344;2022-12-18T05:16:33;0.50;99.90
16485;DHT22;8353;47.856;12.344;2022-12-18T05:19:05;0.60;99.90
16485;DHT22;8353;47.856;12.344;2022-12-18T05:21:35;0.40;99.90
16485;DHT22;8353;47.856;12.344;2022-12-18T05:24:06;0.30;99.90
16485;DHT22;8353;47.856;12.344;2022-12-18T05:26:37;0.10;99.90
16485;DHT22;8353;47.856;12.344;2022-12-18T05:29:08;0.00;99.90
16485;DHT22;8353;47.856;12.344;2022-12-18T05:31:42;0.30;99.90
16485;DHT22;8353;47.856;12.344;2022-12-18T05:34:12;0.70;99.90
16485;DHT22;8353;47.856;12.344;2022-12-18T05:36:43;0.80;99.90
16485;DHT22;8353;47.856;12.344;2022-12-18T05:39:14;1.00;99.90
16485;DHT22;8353;47.856;12.344;2022-12-18T05:41:45;1.00;99.90
16485;DHT22;8353;47.856;12.344;2022-12-18T05:44:15;0.90;99.90
16485;DHT22;8353;47.856;12.344;2022-12-18T05:46:47;0.90;99.90
16485;DHT22;8353;47.856;12.344;2022-12-18T05:49:17;0.90;99.90
16485;DHT22;8353;47.856;12.344;2022-12-18T05:51:48;0.90;99.90
16485;DHT22;8353;47.856;12.344;2022-12-18T05:54:18;0.90;99.90
16485;DHT22;8353;47.856;12.344;2022-12-18T05:56:49;0.80;99.90
16485;DHT22;8353;47.856;12.344;2022-12-18T05:59:20;0.70;99.90
16485;DHT22;8353;47.856;12.344;2022-12-18T06:01:52;0.50;99.90
16485;DHT22;8353;47.856;12.344;2022-12-18T06:04:23;0.50;99.90
16485;DHT22;8353;47.856;12.344;2022-12-18T06:06:53;0.30;99.90
16485;DHT22;8353;47.856;12.344;2022-12-18T06:09:24;0.40;99.90
16485;DHT22;8353;47.856;12.344;2022-12-18T06:11:54;0.60;99.90
16485;DHT22;8353;47.856;12.344;2022-12-18T06:14:25;0.70;99.90
16485;DHT22;8353;47.856;12.344;2022-12-18T06:16:57;0.80;99.90
16485;DHT22;8353;47.856;12.344;2022-12-18T06:19:28;1.00;99.90
16485;DHT22;8353;47.856;12.344;2022-12-18T06:21:59;1.20;99.90
16485;DHT22;8353;47.856;12.344;2022-12-18T06:24:30;1.30;99.90
16485;DHT22;8353;47.856;12.344;2022-12-18T06:27:00;1.40;99.90
16485;DHT22;8353;47.856;12.344;2022-12-18T06:29:33;1.50;99.90
16485;DHT22;8353;47.856;12.344;2022-12-18T06:32:05;1.60;99.90
16485;DHT22;8353;47.856;12.344;2022-12-18T06:34:37;1.30;99.90
16485;DHT22;8353;47.856;12.344;2022-12-18T06:37:07;0.70;99.90
16485;DHT22;8353;47.856;12.344;2022-12-18T06:39:38;0.00;99.90
16485;DHT22;8353;47.856;12.344;2022-12-18T06:42:07;0.10;99.90
16485;DHT22;8353;47.856;12.344;2022-12-18T06:44:38;0.10;99.90
16485;DHT22;8353;47.856;12.344;2022-12-18T06:47:10;0.10;99.90
16485;DHT22;8353;47.856;12.344;2022-12-18T06:49:40;0.00;99.90
16485;DHT22;8353;47.856;12.344;2022-12-18T06:52:10;0.20;99.90
16485;DHT22;8353;47.856;12.344;2022-12-18T06:54:41;0.30;99.90
16485;DHT22;8353;47.856;12.344;2022-12-18T06:57:12;0.40;99.90
16485;DHT22;8353;47.856;12.344;2022-12-18T06:59:42;0.50;99.90
16485;DHT22;8353;47.856;12.344;2022-12-18T07:02:14;0.50;99.90
16485;DHT22;8353;47.856;12.344;2022-12-18T07:04:45;0.60;99.90
16485;DHT22;8353;47.856;12.344;2022-12-18T07:07:15;0.60;99.90
16485;DHT22;8353;47.856;12.344;2022-12-18T07:09:45;0.70;99.90
16485;DHT22;8353;47.856;12.344;2022-12-18T07:12:16;0.80;99.90
16485;DHT22;8353;47.856;12.344;2022-12-18T07:14:47;0.90;99.90
16485;DHT22;8353;47.856;12.344;2022-12-18T07:17:18;0.80;99.90
16485;DHT22;8353;47.856;12.344;2022-12-18T07:19:49;0.50;99.90
16485;DHT22;8353;47.856;12.344;2022-12-18T07:22:19;0.20;99.90
16485;DHT22;8353;47.856;12.344;2022-12-18T07:24:49;0.40;99.90
16485;DHT22;8353;47.856;12.344;2022-12-18T07:27:19;0.60;99.90
16485;DHT22;8353;47.856;12.344;2022-12-18T07:29:50;0.10;99.90
16485;DHT22;8353;47.856;12.344;2022-12-18T07:32:22;-0.50;99.90
16485;DHT22;8353;47.856;12.344;2022-12-18T07:34:53;0.00;99.90
16485;DHT22;8353;47.856;12.344;2022-12-18T07:37:23;0.00;99.90
16485;DHT22;8353;47.856;12.344;2022-12-18T07:39:54;0.10;99.90
16485;DHT22;8353;47.856;12.344;2022-12-18T07:42:25;0.20;99.90
16485;DHT22;8353;47.856;12.344;2022-12-18T07:45:02;0.40;99.90
16485;DHT22;8353;47.856;12.344;2022-12-18T07:47:35;0.50;99.90
16485;DHT22;8353;47.856;12.344;2022-12-18T07:50:06;0.60;99.90
16485;DHT22;8353;47.856;12.344;2022-12-18T07:52:37;0.70;99.90
16485;DHT22;8353;47.856;12.344;2022-12-18T07:55:08;0.70;99.90
16485;DHT22;8353;47.856;12.344;2022-12-18T07:57:38;0.80;99.90
16485;DHT22;8353;47.856;12.344;2022-12-18T08:00:10;0.80;99.90
16485;DHT22;8353;47.856;12.344;2022-12-18T08:02:43;0.90;99.90
16485;DHT22;8353;47.856;12.344;2022-12-18T08:05:13;0.00;99.90
16485;DHT22;8353;47.856;12.344;2022-12-18T08:07:44;0.10;99.90
16485;DHT22;8353;47.856;12.344;2022-12-18T08:10:14;0.40;99.90
16485;DHT22;8353;47.856;12.344;2022-12-18T08:12:45;0.40;99.90
16485;DHT22;8353;47.856;12.344;2022-12-18T08:15:19;0.60;99.90
16485;DHT22;8353;47.856;12.344;2022-12-18T08:17:50;0.60;99.90
16485;DHT22;8353;47.856;12.344;2022-12-18T08:20:21;0.70;99.90
16485;DHT22;8353;47.856;12.344;2022-12-18T08:22:54;0.70;99.90
16485;DHT22;8353;47.856;12.344;2022-12-18T08:25:26;0.80;99.90
16485;DHT22;8353;47.856;12.344;2022-12-18T08:27:57;0.90;99.90
16485;DHT22;8353;47.856;12.344;2022-12-18T08:30:28;0.90;99.90
16485;DHT22;8353;47.856;12.344;2022-12-18T08:33:00;0.70;99.90
16485;DHT22;8353;47.856;12.344;2022-12-18T08:35:35;0.30;99.90
16485;DHT22;8353;47.856;12.344;2022-12-18T08:38:05;0.50;99.90
16485;DHT22;8353;47.856;12.344;2022-12-18T08:40:35;0.60;99.90
16485;DHT22;8353;47.856;12.344;2022-12-18T08:43:07;0.60;99.90
16485;DHT22;8353;47.856;12.344;2022-12-18T08:45:55;0.60;99.90
16485;DHT22;8353;47.856;12.344;2022-12-18T08:48:26;0.50;99.90
16485;DHT22;8353;47.856;12.344;2022-12-18T08:50:58;0.60;99.90
16485;DHT22;8353;47.856;12.344;2022-12-18T08:53:31;0.60;99.90
16485;DHT22;8353;47.856;12.344;2022-12-18T08:56:02;0.60;99.90
16485;DHT22;8353;47.856;12.344;2022-12-18T08:58:33;0.60;99.90
16485;DHT22;8353;47.856;12.344;2022-12-18T09:01:04;0.80;99.90
16485;DHT22;8353;47.856;12.344;2022-12-18T09:03:36;1.00;99.90
16485;DHT22;8353;47.856;12.344;2022-12-18T09:06:08;1.20;99.90
16485;DHT22;8353;47.856;12.344;2022-12-18T09:08:38;1.30;99.90
16485;DHT22;8353;47.856;12.344;2022-12-18T09:11:12;1.50;99.90
16485;DHT22;8353;47.856;12.344;2022-12-18T09:13:43;1.50;99.90
16485;DHT22;8353;47.856;12.344;2022-12-18T09:16:14;1.60;99.90
16485;DHT22;8353;47.856;12.344;2022-12-18T09:18:47;1.60;99.90
16485;DHT22;8353;47.856;12.344;2022-12-18T09:21:19;1.50;99.90
16485;DHT22;8353;47.856;12.344;2022-12-18T09:23:54;1.50;99.90
16485;DHT22;8353;47.856;12.344;2022-12-18T09:26:26;1.50;99.90
16485;DHT22;8353;47.856;12.344;2022-12-18T09:28:57;1.50;99.90
16485;DHT22;8353;47.856;12.344;2022-12-18T09:31:28;1.40;99.90
16485;DHT22;8353;47.856;12.344;2022-12-18T09:34:00;1.40;99.90
16485;DHT22;8353;47.856;12.344;2022-12-18T09:36:30;1.30;99.90
16485;DHT22;8353;47.856;12.344;2022-12-18T09:39:00;1.40;99.90
16485;DHT22;8353;47.856;12.344;2022-12-18T09:41:46;1.30;99.90
16485;DHT22;8353;47.856;12.344;2022-12-18T09:44:21;1.10;99.90
16485;DHT22;8353;47.856;12.344;2022-12-18T09:46:59;1.40;99.90
16485;DHT22;8353;47.856;12.344;2022-12-18T09:49:36;1.40;99.90
16485;DHT22;8353;47.856;12.344;2022-12-18T09:52:14;1.30;99.90
16485;DHT22;8353;47.856;12.344;2022-12-18T09:54:49;1.50;99.90
16485;DHT22;8353;47.856;12.344;2022-12-18T09:57:23;1.70;99.90
16485;DHT22;8353;47.856;12.344;2022-12-18T09:59:58;1.90;99.90
16485;DHT22;8353;47.856;12.344;2022-12-18T10:02:31;1.60;99.90
16485;DHT22;8353;47.856;12.344;2022-12-18T10:05:07;1.60;99.90
16485;DHT22;8353;47.856;12.344;2022-12-18T10:07:52;1.80;99.90
16485;DHT22;8353;47.856;12.344;2022-12-18T10:10:32;1.70;99.90
16485;DHT22;8353;47.856;12.344;2022-12-18T10:13:18;1.50;99.90
16485;DHT22;8353;47.856;12.344;2022-12-18T10:16:05;1.50;99.90
16485;DHT22;8353;47.856;12.344;2022-12-18T10:18:48;1.50;99.90
16485;DHT22;8353;47.856;12.344;2022-12-18T10:21:30;1.70;99.90
16485;DHT22;8353;47.856;12.344;2022-12-18T10:24:12;1.70;99.90
16485;DHT22;8353;47.856;12.344;2022-12-18T10:26:45;1.70;99.90
16485;DHT22;8353;47.856;12.344;2022-12-18T10:29:17;1.30;99.90
16485;DHT22;8353;47.856;12.344;2022-12-18T10:31:47;1.10;99.90
16485;DHT22;8353;47.856;12.344;2022-12-18T10:34:18;1.20;99.90
16485;DHT22;8353;47.856;12.344;2022-12-18T10:36:50;1.50;99.90
16485;DHT22;8353;47.856;12.344;2022-12-18T10:39:22;1.60;99.90
16485;DHT22;8353;47.856;12.344;2022-12-18T10:42:10;1.70;99.90
16485;DHT22;8353;47.856;12.344;2022-12-18T10:44:41;1.80;99.90
16485;DHT22;8353;47.856;12.344;2022-12-18T10:47:14;2.00;99.90
16485;DHT22;8353;47.856;12.344;2022-12-18T10:49:50;2.10;99.90
16485;DHT22;8353;47.856;12.344;2022-12-18T10:52:24;2.10;99.90
16485;DHT22;8353;47.856;12.344;2022-12-18T10:54:56;2.10;99.90
16485;DHT22;8353;47.856;12.344;2022-12-18T10:57:33;2.20;99.90
16485;DHT22;8353;47.856;12.344;2022-12-18T11:00:25;2.30;99.90
16485;DHT22;8353;47.856;12.344;2022-12-18T11:02:57;2.30;99.90
16485;DHT22;8353;47.856;12.344;2022-12-18T11:05:29;2.30;99.90
16485;DHT22;8353;47.856;12.344;2022-12-18T11:08:04;2.40;99.90
16485;DHT22;8353;47.856;12.344;2022-12-18T11:10:37;2.40;99.90
16485;DHT22;8353;47.856;12.344;2022-12-18T11:13:17;2.40;99.90
16485;DHT22;8353;47.856;12.344;2022-12-18T11:15:48;2.50;99.90
16485;DHT22;8353;47.856;12.344;2022-12-18T11:18:25;2.40;99.90
16485;DHT22;8353;47.856;12.344;2022-12-18T11:20:58;2.30;99.90
16485;DHT22;8353;47.856;12.344;2022-12-18T11:23:30;2.40;99.90
16485;DHT22;8353;47.856;12.344;2022-12-18T11:26:02;2.50;99.90
16485;DHT22;8353;47.856;12.344;2022-12-18T11:28:38;2.50;99.90
16485;DHT22;8353;47.856;12.344;2022-12-18T11:31:18;2.30;99.90
16485;DHT22;8353;47.856;12.344;2022-12-18T11:33:56;2.20;99.90
16485;DHT22;8353;47.856;12.344;2022-12-18T11:36:32;2.20;99.90
16485;DHT22;8353;47.856;12.344;2022-12-18T11:39:12;2.40;99.90
16485;DHT22;8353;47.856;12.344;2022-12-18T11:41:50;2.40;99.90
16485;DHT22;8353;47.856;12.344;2022-12-18T11:44:46;2.30;99.90
16485;DHT22;8353;47.856;12.344;2022-12-18T11:47:26;2.40;99.90
16485;DHT22;8353;47.856;12.344;2022-12-18T11:50:02;2.30;99.90
16485;DHT22;8353;47.856;12.344;2022-12-18T11:52:37;2.30;99.90
16485;DHT22;8353;47.856;12.344;2022-12-18T11:55:13;2.40;99.90
16485;DHT22;8353;47.856;12.344;2022-12-18T11:57:51;2.50;99.90
16485;DHT22;8353;47.856;12.344;2022-12-18T12:00:25;2.40;99.90
16485;DHT22;8353;47.856;12.344;2022-12-18T12:03:20;2.50;99.90
16485;DHT22;8353;47.856;12.344;2022-12-18T12:06:02;2.40;99.90
16485;DHT22;8353;47.856;12.344;2022-12-18T12:08:44;2.30;99.90
16485;DHT22;8353;47.856;12.344;2022-12-18T12:11:23;2.10;99.90
16485;DHT22;8353;47.856;12.344;2022-12-18T12:14:08;2.20;99.90
16485;DHT22;8353;47.856;12.344;2022-12-18T12:16:48;2.40;99.90
16485;DHT22;8353;47.856;12.344;2022-12-18T12:19:30;2.30;99.90
16485;DHT22;8353;47.856;12.344;2022-12-18T12:22:07;2.40;99.90
16485;DHT22;8353;47.856;12.344;2022-12-18T12:24:50;2.50;99.90
16485;DHT22;8353;47.856;12.344;2022-12-18T12:27:32;2.50;99.90
16485;DHT22;8353;47.856;12.344;2022-12-18T12:30:08;2.50;99.90
16485;DHT22;8353;47.856;12.344;2022-12-18T12:32:49;2.30;99.90
16485;DHT22;8353;47.856;12.344;2022-12-18T12:35:34;2.30;99.90
16485;DHT22;8353;47.856;12.344;2022-12-18T12:38:10;2.20;99.90
16485;DHT22;8353;47.856;12.344;2022-12-18T12:40:46;2.20;99.90
16485;DHT22;8353;47.856;12.344;2022-12-18T12:43:28;2.30;99.90
16485;DHT22;8353;47.856;12.344;2022-12-18T12:46:00;2.40;99.90
16485;DHT22;8353;47.856;12.344;2022-12-18T12:48:40;2.10;99.90
16485;DHT22;8353;47.856;12.344;2022-12-18T12:51:16;2.20;99.90
16485;DHT22;8353;47.856;12.344;2022-12-18T12:53:48;2.20;99.90
16485;DHT22;8353;47.856;12.344;2022-12-18T12:56:21;2.30;99.90
16485;DHT22;8353;47.856;12.344;2022-12-18T12:58:58;2.30;99.90
16485;DHT22;8353;47.856;12.344;2022-12-18T13:01:37;2.10;99.90
16485;DHT22;8353;47.856;12.344;2022-12-18T13:04:19;2.20;99.90
16485;DHT22;8353;47.856;12.344;2022-12-18T13:06:57;2.20;99.90
16485;DHT22;8353;47.856;12.344;2022-12-18T13:09:31;2.10;99.90
16485;DHT22;8353;47.856;12.344;2022-12-18T13:12:03;2.10;99.90
16485;DHT22;8353;47.856;12.344;2022-12-18T13:15:12;2.10;99.90
16485;DHT22;8353;47.856;12.344;2022-12-18T13:17:43;2.00;99.90
16485;DHT22;8353;47.856;12.344;2022-12-18T13:20:15;2.00;99.90
16485;DHT22;8353;47.856;12.344;2022-12-18T13:22:47;2.10;99.90
16485;DHT22;8353;47.856;12.344;2022-12-18T13:25:34;2.30;99.90
16485;DHT22;8353;47.856;12.344;2022-12-18T13:28:12;2.40;99.90
16485;DHT22;8353;47.856;12.344;2022-12-18T13:30:55;2.30;99.90
16485;DHT22;8353;47.856;12.344;2022-12-18T13:33:39;1.80;99.90
16485;DHT22;8353;47.856;12.344;2022-12-18T13:36:14;2.00;99.90
16485;DHT22;8353;47.856;12.344;2022-12-18T13:38:45;2.00;99.90
16485;DHT22;8353;47.856;12.344;2022-12-18T13:41:23;2.10;99.90
16485;DHT22;8353;47.856;12.344;2022-12-18T13:43:54;2.10;99.90
16485;DHT22;8353;47.856;12.344;2022-12-18T13:46:30;2.30;99.90
16485;DHT22;8353;47.856;12.344;2022-12-18T13:49:22;2.40;99.90
16485;DHT22;8353;47.856;12.344;2022-12-18T13:54:46;2.20;99.90
16485;DHT22;8353;47.856;12.344;2022-12-18T13:57:27;2.20;99.90
16485;DHT22;8353;47.856;12.344;2022-12-18T14:00:19;2.10;99.90
16485;DHT22;8353;47.856;12.344;2022-12-18T14:02:55;2.10;99.90
16485;DHT22;8353;47.856;12.344;2022-12-18T14:05:27;2.30;99.90
16485;DHT22;8353;47.856;12.344;2022-12-18T14:08:01;2.30;99.90
16485;DHT22;8353;47.856;12.344;2022-12-18T14:10:40;2.40;99.90
16485;DHT22;8353;47.856;12.344;2022-12-18T14:13:24;2.40;99.90
16485;DHT22;8353;47.856;12.344;2022-12-18T14:15:57;2.20;99.90
16485;DHT22;8353;47.856;12.344;2022-12-18T14:18:37;1.90;99.90
16485;DHT22;8353;47.856;12.344;2022-12-18T14:21:20;1.90;99.90
16485;DHT22;8353;47.856;12.344;2022-12-18T14:24:04;2.00;99.90
16485;DHT22;8353;47.856;12.344;2022-12-18T14:26:35;2.00;99.90
16485;DHT22;8353;47.856;12.344;2022-12-18T14:29:23;2.10;99.90
16485;DHT22;8353;47.856;12.344;2022-12-18T14:32:09;2.20;99.90
16485;DHT22;8353;47.856;12.344;2022-12-18T14:34:42;2.30;99.90
16485;DHT22;8353;47.856;12.344;2022-12-18T14:37:14;2.40;99.90
16485;DHT22;8353;47.856;12.344;2022-12-18T14:39:56;2.40;99.90
16485;DHT22;8353;47.856;12.344;2022-12-18T14:42:28;2.30;99.90
16485;DHT22;8353;47.856;12.344;2022-12-18T14:45:32;2.30;99.90
16485;DHT22;8353;47.856;12.344;2022-12-18T14:48:07;2.30;99.90
16485;DHT22;8353;47.856;12.344;2022-12-18T14:50:40;2.40;99.90
16485;DHT22;8353;47.856;12.344;2022-12-18T14:53:20;2.30;99.90
16485;DHT22;8353;47.856;12.344;2022-12-18T14:55:52;2.30;99.90
16485;DHT22;8353;47.856;12.344;2022-12-18T14:58:23;2.30;99.90
16485;DHT22;8353;47.856;12.344;2022-12-18T15:00:54;2.40;99.90
16485;DHT22;8353;47.856;12.344;2022-12-18T15:03:25;2.40;99.90
16485;DHT22;8353;47.856;12.344;2022-12-18T15:05:56;2.40;99.90
16485;DHT22;8353;47.856;12.344;2022-12-18T15:08:44;2.30;99.90
16485;DHT22;8353;47.856;12.344;2022-12-18T15:11:33;2.40;99.90
16485;DHT22;8353;47.856;12.344;2022-12-18T15:14:34;2.40;99.90
16485;DHT22;8353;47.856;12.344;2022-12-18T15:17:14;2.40;99.90
16485;DHT22;8353;47.856;12.344;2022-12-18T15:19:45;2.40;99.90
16485;DHT22;8353;47.856;12.344;2022-12-18T15:22:26;2.40;99.90
16485;DHT22;8353;47.856;12.344;2022-12-18T15:24:58;2.40;99.90
16485;DHT22;8353;47.856;12.344;2022-12-18T15:27:31;2.10;99.90
16485;DHT22;8353;47.856;12.344;2022-12-18T15:30:17;2.00;99.90
16485;DHT22;8353;47.856;12.344;2022-12-18T15:32:48;2.10;99.90
16485;DHT22;8353;47.856;12.344;2022-12-18T15:35:21;2.10;99.90
16485;DHT22;8353;47.856;12.344;2022-12-18T15:37:54;2.10;99.90
16485;DHT22;8353;47.856;12.344;2022-12-18T15:40:25;2.10;99.90
16485;DHT22;8353;47.856;12.344;2022-12-18T15:42:56;2.20;99.90
16485;DHT22;8353;47.856;12.344;2022-12-18T15:45:44;2.40;99.90
16485;DHT22;8353;47.856;12.344;2022-12-18T15:48:20;2.30;99.90
16485;DHT22;8353;47.856;12.344;2022-12-18T15:50:52;2.30;99.90
16485;DHT22;8353;47.856;12.344;2022-12-18T15:53:28;2.40;99.90
16485;DHT22;8353;47.856;12.344;2022-12-18T15:55:59;2.30;99.90
16485;DHT22;8353;47.856;12.344;2022-12-18T15:58:47;2.40;99.90
16485;DHT22;8353;47.856;12.344;2022-12-18T16:01:17;2.40;99.90
16485;DHT22;8353;47.856;12.344;2022-12-18T16:03:47;2.40;99.90
16485;DHT22;8353;47.856;12.344;2022-12-18T16:06:17;2.40;99.90
16485;DHT22;8353;47.856;12.344;2022-12-18T16:08:49;2.40;99.90
16485;DHT22;8353;47.856;12.344;2022-12-18T16:11:22;2.40;99.90
16485;DHT22;8353;47.856;12.344;2022-12-18T16:14:12;2.30;99.90
16485;DHT22;8353;47.856;12.344;2022-12-18T16:16:46;2.30;99.90
16485;DHT22;8353;47.856;12.344;2022-12-18T16:19:17;2.20;99.90
16485;DHT22;8353;47.856;12.344;2022-12-18T16:21:49;2.20;99.90
16485;DHT22;8353;47.856;12.344;2022-12-18T16:24:23;2.20;99.90
16485;DHT22;8353;47.856;12.344;2022-12-18T16:26:56;2.30;99.90
16485;DHT22;8353;47.856;12.344;2022-12-18T16:29:28;2.30;99.90
16485;DHT22;8353;47.856;12.344;2022-12-18T16:32:00;2.30;99.90
16485;DHT22;8353;47.856;12.344;2022-12-18T16:34:34;2.30;99.90